Latest Weather Observations for Maningrida Airport

IDD60801

Issued at 11:05 am CST Wednesday 22 October 2014 (issued every 30 minutes, with the page automatically refreshed every 10 minutes)

About weather observations | Map of weather stations | Latest weather observations for NT | Other Formats
Station Details ID: 014405 Name: MANINGRIDA AIRPORT Lat: -12.06 Lon: 134.23 Height: 28.1 m
Data from the previous 72 hours. | See also: Recent months at Maningrida Airport
Date/Time
CST
Temp
°C
App
Temp
°C
Dew
Point
Rel
Hum
%
Delta-T
°C
Wind Press
QNH
hPa
Press
MSL
hPa
Rain
since 9 am
mm
Dir
 
Spd
km/h
Gust
km/h
Spd
kts
Gust
kts
22/11:00am 30.9 33.8 19.9 52 7.2 NNE 4 24 2 13 1014.4 1014.2 0.0
22/10:30am 31.5 35.1 19.8 49 7.7 E 0 0 0 0 1014.8 1014.6 0.0
22/10:00am 30.8 33.8 19.2 50 7.6 SE 2 20 1 11 1015.1 1014.9 0.0
22/09:30am 29.7 32.8 19.4 54 6.7 SE 2 22 1 12 1015.3 1015.1 0.0
22/09:00am 28.9 32.8 20.4 60 5.6 CALM 0 0 0 0 1015.3 1015.1 0.0
22/08:30am 28.0 32.8 22.2 70 3.9 CALM 0 0 0 0 1015.2 1015.0 0.0
22/08:00am 26.6 31.5 22.4 78 2.8 CALM 0 0 0 0 1015.1 1014.9 0.0
22/07:30am 25.3 30.2 22.4 84 1.9 CALM 0 0 0 0 1014.7 1014.5 0.0
22/07:00am 24.1 29.2 22.7 92 0.9 CALM 0 0 0 0 1014.1 1013.9 0.0
22/06:30am 23.1 28.4 23.1 100 0.0 SE 0 0 0 0 1013.6 1013.4 0.0
22/06:00am 23.0 28.3 23.0 100 0.0 SE 0 0 0 0 1013.4 1013.2 0.0
22/05:30am 23.4 28.6 22.9 97 0.3 CALM 0 0 0 0 1013.1 1012.9 0.0
22/05:00am 23.9 29.3 23.2 96 0.5 CALM 0 0 0 0 1012.8 1012.6 0.0
22/04:30am 24.2 30.0 24.0 99 0.1 CALM 0 0 0 0 1012.7 1012.5 0.0
22/04:00am 24.5 30.3 24.0 97 0.3 CALM 0 0 0 0 1012.4 1012.2 0.0
22/03:30am 24.5 30.3 24.0 97 0.3 CALM 0 0 0 0 1012.6 1012.4 0.0
22/03:00am 24.8 30.6 23.9 95 0.6 CALM 0 0 0 0 1012.8 1012.6 0.0
22/02:30am 24.3 29.4 22.7 91 1.1 CALM 0 0 0 0 1013.1 1012.9 0.0
22/02:00am 25.2 30.7 23.4 90 1.2 CALM 0 0 0 0 1013.5 1013.3 0.0
22/01:30am 25.8 31.2 23.3 86 1.7 CALM 0 0 0 0 1013.7 1013.5 0.0
22/01:00am 26.6 32.2 23.5 83 2.1 ENE 0 0 0 0 1014.0 1013.8 0.0
22/12:30am 26.9 32.6 23.8 83 2.1 CALM 0 0 0 0 1014.5 1014.3 0.0
22/12:00am 27.0 32.7 23.7 82 2.3 E 0 0 0 0 1014.6 1014.4 0.0
 
Date/Time
CST
Temp
°C
App
Temp
°C
Dew
Point
Rel
Hum
%
Delta-T
°C
Wind Press
QNH
hPa
Press
MSL
hPa
Rain
since 9 am
mm
Dir
 
Spd
km/h
Gust
km/h
Spd
kts
Gust
kts
21/11:30pm 26.9 32.5 23.6 82 2.3 CALM 0 0 0 0 1014.6 1014.4 0.0
21/11:00pm 26.9 32.6 23.8 83 2.1 CALM 0 0 0 0 1014.8 1014.6 0.0
21/10:30pm 26.9 32.5 23.6 82 2.3 CALM 0 0 0 0 1014.9 1014.7 0.0
21/10:00pm 26.8 32.2 23.3 81 2.4 CALM 0 0 0 0 1014.6 1014.4 0.0
21/09:30pm 27.1 32.7 23.6 81 2.4 CALM 0 6 0 3 1014.2 1014.0 0.0
21/09:00pm 27.0 32.4 23.3 80 2.5 CALM 0 0 0 0 1013.9 1013.7 0.0
21/08:30pm 26.9 32.1 22.9 79 2.7 CALM 0 0 0 0 1013.5 1013.3 0.0
21/08:00pm 27.0 32.2 22.8 78 2.9 CALM 0 0 0 0 1013.1 1012.9 0.0
21/07:30pm 27.2 32.3 22.6 76 3.1 CALM 0 0 0 0 1012.9 1012.7 0.0
21/07:00pm 27.3 32.4 22.7 76 3.1 CALM 0 0 0 0 1012.6 1012.4 0.0
21/06:30pm 27.6 32.6 22.5 74 3.5 CALM 0 0 0 0 1012.3 1012.1 0.0
21/06:00pm 28.2 33.0 22.2 70 4.1 CALM 0 4 0 2 1012.1 1011.9 0.0
21/05:30pm 28.8 32.8 22.1 67 4.5 NNE 4 24 2 13 1012.0 1011.8 0.0
21/05:00pm 29.7 33.1 21.6 61 5.4 NNE 6 30 3 16 1011.7 1011.5 0.0
21/04:30pm 30.7 34.2 21.8 59 6.0 NNE 6 30 3 16 1011.4 1011.2 0.0
21/04:00pm 30.3 31.5 21.4 59 6.0 NE 17 33 9 18 1011.5 1011.3 0.0
21/03:30pm 30.7 34.7 20.6 54 6.7 CALM 0 - 0 - - 1011.5 -
21/03:00pm 31.3 31.7 20.6 53 7.1 NE 19 35 10 19 1011.9 1011.7 0.0
21/02:30pm 31.5 32.4 20.1 50 7.5 NE 15 32 8 17 1012.2 1012.0 0.0
21/02:00pm 31.4 33.0 19.1 48 8.0 NE 9 30 5 16 1012.7 1012.5 0.0
21/01:30pm 31.7 34.6 20.6 51 7.4 ENE 6 28 3 15 1013.1 1012.9 0.0
21/01:00pm 31.4 33.7 20.7 53 7.1 NE 9 32 5 17 1013.6 1013.4 0.0
21/12:30pm 32.0 34.2 19.3 47 8.3 NE 6 26 3 14 1014.2 1014.0 0.0
21/12:00pm 31.8 34.4 18.4 45 8.7 NE 2 26 1 14 1014.7 1014.5 0.0
21/11:30am 30.6 32.1 19.0 50 7.5 NE 9 30 5 16 1015.1 1014.9 0.0
21/11:00am 31.1 33.8 19.4 49 7.7 ENE 4 28 2 15 1015.2 1015.0 0.0
21/10:30am 30.7 33.5 18.8 49 7.7 NE 2 22 1 12 1015.4 1015.2 0.0
21/10:00am 30.2 32.5 17.6 46 8.0 E 2 24 1 13 1015.6 1015.4 0.0
21/09:30am 28.8 32.4 20.5 61 5.5 ENE 2 24 1 13 1015.6 1015.4 0.0
21/09:00am 28.1 31.5 20.1 62 5.2 ENE 2 22 1 12 1015.6 1015.4 0.0
21/08:30am 27.6 31.8 20.9 67 4.4 CALM 0 15 0 8 1015.5 1015.3 0.0
21/08:00am 26.6 30.5 20.4 69 4.1 CALM 0 0 0 0 1015.1 1014.9 0.0
21/07:30am 25.0 29.3 21.1 79 2.6 CALM 0 0 0 0 1014.8 1014.6 0.0
21/07:00am 23.1 27.6 21.5 91 1.1 CALM 0 0 0 0 1014.5 1014.3 0.0
21/06:30am 21.6 26.1 21.6 100 0.0 CALM 0 0 0 0 1014.2 1014.0 0.0
21/06:00am 21.2 25.5 21.2 100 0.0 CALM 0 0 0 0 1013.9 1013.7 0.0
21/05:30am 21.1 25.2 20.8 98 0.2 CALM 0 0 0 0 1013.6 1013.4 0.0
21/05:00am 21.9 26.2 21.1 95 0.5 CALM 0 0 0 0 1013.4 1013.2 0.0
21/04:30am 21.7 26.3 21.7 100 0.0 CALM 0 0 0 0 1013.3 1013.1 0.0
21/04:00am 21.9 26.6 21.9 100 0.0 CALM 0 0 0 0 1013.7 1013.5 0.0
21/03:30am 22.1 26.5 21.4 96 0.5 CALM 0 0 0 0 1013.5 1013.3 0.0
21/03:00am 22.7 27.0 21.2 91 1.0 CALM 0 0 0 0 1013.5 1013.3 0.0
21/02:30am 23.2 27.5 21.1 88 1.4 CALM 0 0 0 0 1013.6 1013.4 0.0
21/02:00am 23.7 28.1 21.4 87 1.5 CALM 0 0 0 0 1013.8 1013.6 0.0
21/01:30am 24.6 29.3 21.9 85 1.8 CALM 0 0 0 0 1014.0 1013.8 0.0
21/01:00am 24.8 29.7 22.3 86 1.7 CALM 0 0 0 0 1014.0 1013.8 0.0
21/12:30am 25.3 30.0 22.0 82 2.2 CALM 0 0 0 0 1014.3 1014.1 0.0
21/12:00am 26.2 31.0 22.1 78 2.7 CALM 0 0 0 0 1014.4 1014.2 0.0
 
Date/Time
CST
Temp
°C
App
Temp
°C
Dew
Point
Rel
Hum
%
Delta-T
°C
Wind Press
QNH
hPa
Press
MSL
hPa
Rain
since 9 am
mm
Dir
 
Spd
km/h
Gust
km/h
Spd
kts
Gust
kts
20/11:30pm 26.6 31.4 22.2 77 3.0 CALM 0 0 0 0 1014.6 1014.4 0.0
20/11:00pm 27.0 31.8 22.2 75 3.2 CALM 0 0 0 0 1014.6 1014.4 0.0
20/10:30pm 27.3 32.3 22.5 75 3.2 CALM 0 0 0 0 1014.5 1014.3 0.0
20/10:00pm 27.2 32.3 22.6 76 3.1 CALM 0 0 0 0 1014.2 1014.0 0.0
20/09:30pm 27.3 32.3 22.5 75 3.2 CALM 0 24 0 13 1013.9 1013.7 0.0
20/09:00pm 27.4 32.5 22.6 75 3.3 CALM 0 22 0 12 1013.4 1013.2 0.0
20/08:30pm 27.3 31.6 22.0 73 3.6 ENE 2 28 1 15 1013.0 1012.8 0.0
20/08:00pm 27.3 31.8 21.6 71 3.8 CALM 0 20 0 11 1012.6 1012.4 0.0
20/07:30pm 27.3 32.3 22.5 75 3.2 CALM 0 0 0 0 1012.1 1011.9 0.0
20/07:00pm 27.1 32.4 23.1 79 2.7 CALM 0 0 0 0 1011.6 1011.4 0.0
20/06:30pm 27.2 32.4 22.8 77 3.0 CALM 0 24 0 13 1011.3 1011.1 0.0
20/06:00pm 27.6 32.6 22.5 74 3.5 CALM 0 0 0 0 1010.9 1010.8 0.0
20/05:30pm 28.2 32.8 22.4 71 3.9 NE 2 26 1 14 1010.7 1010.6 0.0
20/05:00pm 28.6 31.6 21.9 67 4.5 NE 9 33 5 18 1010.4 1010.3 0.0
20/04:30pm 29.5 32.0 21.7 63 5.3 ENE 11 32 6 17 1010.3 1010.2 0.0
20/04:00pm 29.3 29.7 21.0 61 5.5 NE 20 37 11 20 1010.5 1010.4 0.0
20/03:30pm 29.8 31.1 20.1 56 6.4 NE 13 35 7 19 1010.6 1010.5 0.0
20/03:00pm 30.2 31.4 19.9 54 6.8 NE 13 33 7 18 1011.0 1010.9 0.0
20/02:30pm 31.9 34.7 20.8 51 7.4 NE 7 35 4 19 1011.5 1011.3 0.0
20/02:00pm 30.2 32.3 20.2 55 6.6 NE 9 35 5 19 1011.8 1011.6 0.0
20/01:30pm 30.6 31.4 19.9 52 7.0 NE 15 35 8 19 1012.3 1012.1 0.0
20/01:00pm 31.3 31.3 19.0 48 8.0 NE 17 33 9 18 1012.7 1012.5 0.0
20/12:30pm 31.0 30.2 18.4 47 8.1 ENE 20 30 11 16 1013.3 1013.1 0.0
20/12:00pm 33.2 32.4 18.5 41 9.6 ENE 20 32 11 17 1013.7 1013.5 0.0
20/11:30am 33.1 32.2 17.7 40 9.9 NE 19 28 10 15 1014.0 1013.8 0.0
20/11:00am 31.6 31.0 17.5 43 9.0 ENE 17 26 9 14 1014.4 1014.2 0.0
20/10:30am 30.7 29.4 15.9 40 9.2 E 17 24 9 13 1014.7 1014.5 0.0
20/10:00am 30.7 29.1 13.9 36 10.1 ESE 15 20 8 11 1015.0 1014.8 0.0
20/09:30am 30.4 29.3 15.3 40 9.3 ESE 15 22 8 12 1015.0 1014.8 0.0
20/09:00am 28.9 27.9 16.5 47 7.7 E 17 26 9 14 1015.1 1014.9 0.0
20/08:30am 27.0 27.2 19.4 63 4.9 E 17 28 9 15 1015.0 1014.8 0.0
20/08:00am 25.0 26.2 21.5 81 2.3 E 17 22 9 12 1014.9 1014.7 0.0
20/07:30am 23.3 25.1 21.2 88 1.4 ESE 13 17 7 9 1014.6 1014.4 0.0
20/07:00am 21.8 24.6 21.6 99 0.1 ESE 9 13 5 7 1014.4 1014.2 0.0
20/06:30am 20.7 23.4 20.7 100 0.0 ESE 7 11 4 6 1014.3 1014.1 0.0
20/06:00am 20.0 23.3 20.0 100 0.0 E 2 7 1 4 1014.0 1013.8 0.0
20/05:30am 19.9 23.6 19.9 100 0.0 CALM 0 6 0 3 1013.5 1013.3 0.0
20/05:00am 20.2 22.7 20.2 100 0.0 SSW 7 9 4 5 1013.3 1013.1 0.0
20/04:30am 20.7 24.3 20.5 99 0.1 SSE 2 6 1 3 1013.2 1013.0 0.0
20/04:00am 21.6 24.6 20.9 96 0.5 SSE 6 7 3 4 1013.0 1012.8 0.0
20/03:30am 22.4 25.5 21.4 94 0.7 SE 7 9 4 5 1013.1 1012.9 0.0
20/03:00am 22.9 25.8 21.7 93 0.8 ESE 9 11 5 6 1013.0 1012.8 0.0
20/02:30am 23.2 26.1 22.4 95 0.5 ESE 11 13 6 7 1013.2 1013.0 0.0
20/02:00am 23.5 27.2 22.5 94 0.7 ESE 7 9 4 5 1013.2 1013.0 0.0
20/01:30am 24.1 27.4 22.5 91 1.1 SE 9 11 5 6 1013.4 1013.2 0.0
20/01:00am 24.9 27.3 22.2 85 1.8 SE 13 15 7 8 1013.4 1013.2 0.0
20/12:30am 25.0 28.5 22.9 88 1.4 ESE 9 13 5 7 1013.7 1013.5 0.0
20/12:00am 25.6 29.4 22.7 84 2.0 ESE 7 9 4 5 1013.9 1013.7 0.0
 
Date/Time
CST
Temp
°C
App
Temp
°C
Dew
Point
Rel
Hum
%
Delta-T
°C
Wind Press
QNH
hPa
Press
MSL
hPa
Rain
since 9 am
mm
Dir
 
Spd
km/h
Gust
km/h
Spd
kts
Gust
kts
19/11:30pm 26.2 29.6 22.7 81 2.4 E 9 13 5 7 1014.0 1013.8 0.0
19/11:00pm 26.5 30.2 23.2 82 2.2 E 9 13 5 7 1014.1 1013.9 0.0
19/10:30pm 26.8 30.0 23.1 80 2.5 E 11 15 6 8 1014.1 1013.9 0.0
19/10:00pm 27.1 30.0 23.1 79 2.7 E 13 22 7 12 1013.9 1013.7 0.0
19/09:30pm 27.2 29.2 23.0 78 2.9 ENE 17 22 9 12 1013.6 1013.4 0.0
19/09:00pm 27.2 30.0 23.0 78 2.9 ENE 13 20 7 11 1013.3 1013.1 0.0
19/08:30pm 27.2 29.5 22.8 77 3.0 ENE 15 20 8 11 1012.8 1012.6 0.0
19/08:00pm 27.2 29.5 22.8 77 3.0 ENE 15 24 8 13 1012.4 1012.2 0.0
19/07:30pm 27.3 29.3 22.9 77 3.0 NE 17 26 9 14 1012.0 1011.8 0.0
19/07:00pm 27.4 29.4 23.0 77 3.0 NE 17 24 9 13 1011.6 1011.4 0.0
19/06:30pm 27.6 29.5 22.8 75 3.3 ENE 17 24 9 13 1011.5 1011.3 0.0
19/06:00pm 27.8 28.3 22.7 74 3.5 ENE 24 33 13 18 1011.1 1011.0 0.0
19/05:30pm 28.5 30.1 23.2 73 3.6 NE 20 32 11 17 1010.8 1010.7 0.0
19/05:00pm 28.7 29.6 22.7 70 4.1 NNE 22 28 12 15 1010.4 1010.3 0.0
19/04:30pm 29.2 29.9 22.2 66 4.7 NNE 22 37 12 20 1010.4 1010.3 0.0
19/04:00pm 30.0 30.4 22.4 63 5.2 NNE 24 33 13 18 1010.3 1010.2 0.0
19/03:30pm 30.2 31.0 22.4 63 5.3 NE 22 33 12 18 1010.5 1010.4 0.0
19/03:00pm 31.2 31.2 21.7 57 6.4 NE 24 33 13 18 1010.7 1010.6 0.0
19/02:30pm 31.0 30.8 22.0 58 6.1 NE 26 39 14 21 1011.0 1010.9 0.0
19/02:00pm 31.0 30.6 20.9 55 6.7 ENE 24 35 13 19 1011.3 1011.1 0.0
19/01:30pm 31.0 31.4 21.8 58 6.2 ENE 22 35 12 19 1011.8 1011.6 0.0
19/01:00pm 30.9 30.6 21.1 56 6.6 NE 24 35 13 19 1012.3 1012.1 0.0
19/12:30pm 30.7 31.0 21.5 58 6.2 ENE 22 33 12 18 1012.8 1012.6 0.0
19/12:00pm 31.1 31.3 21.3 56 6.6 ENE 22 32 12 17 1013.4 1013.2 0.0
19/11:30am 30.9 31.5 21.4 57 6.4 ENE 20 33 11 18 1013.8 1013.6 0.0

Other Formats:

Comma delimited format used in spreadsheet applications
http://www.bom.gov.au/fwo/IDD60801/IDD60801.95142.axf

JavaScript Object Notation format (JSON) in row-major order
http://www.bom.gov.au/fwo/IDD60801/IDD60801.95142.json